createdAt,value
2023-05-01T00:01:38.828Z,95.65
2023-05-01T00:04:40.822Z,95.67
2023-05-01T00:07:42.720Z,95.37
2023-05-01T00:10:44.645Z,95.27
2023-05-01T00:13:46.701Z,95.97
2023-05-01T00:16:48.565Z,95.91
2023-05-01T00:19:54.447Z,95.68
2023-05-01T00:22:57.891Z,95.65
2023-05-01T00:25:59.679Z,95.51
2023-05-01T00:29:01.494Z,95.31
2023-05-01T00:32:05.847Z,94.96
2023-05-01T00:35:08.225Z,95.06
2023-05-01T00:38:10.236Z,95.01
2023-05-01T00:41:12.495Z,94.79
2023-05-01T00:44:14.696Z,94.86
2023-05-01T00:47:16.813Z,94.79
2023-05-01T00:50:18.775Z,94.66
2023-05-01T00:53:22.194Z,94.63
2023-05-01T00:56:25.348Z,94.43
2023-05-01T00:59:27.269Z,94.48
2023-05-01T01:02:29.188Z,94.51
2023-05-01T01:05:35.782Z,94.50
2023-05-01T01:08:46.196Z,94.45
2023-05-01T01:12:10.684Z,94.33
2023-05-01T01:15:50.747Z,94.31
2023-05-01T01:19:18.234Z,94.34
2023-05-01T01:22:24.108Z,94.40
2023-05-01T01:25:45.683Z,94.60
2023-05-01T01:29:10.994Z,94.43
2023-05-01T01:32:18.691Z,94.85
2023-05-01T01:35:24.453Z,94.72
2023-05-01T01:38:40.852Z,94.68
2023-05-01T01:41:47.832Z,94.55
2023-05-01T01:44:53.210Z,94.59
2023-05-01T01:47:57.477Z,94.26
2023-05-01T01:51:05.029Z,94.47
2023-05-01T01:54:08.389Z,94.18
2023-05-01T01:57:13.168Z,94.10
2023-05-01T02:00:16.615Z,94.13
2023-05-01T02:03:23.902Z,94.12
2023-05-01T02:06:27.099Z,94.36
2023-05-01T02:09:30.902Z,94.35
2023-05-01T02:12:34.275Z,94.19
2023-05-01T02:15:38.228Z,94.29
2023-05-01T02:18:41.054Z,94.56
2023-05-01T02:21:44.277Z,94.60
2023-05-01T02:24:47.432Z,94.53
2023-05-01T02:28:12.821Z,94.33
2023-05-01T02:31:14.944Z,94.58
2023-05-01T02:34:17.151Z,94.68
2023-05-01T02:37:19.125Z,94.97
2023-05-01T02:40:22.095Z,94.68
2023-05-01T02:43:27.911Z,94.72
2023-05-01T02:46:33.443Z,94.89
2023-05-01T02:49:36.695Z,94.75
2023-05-01T02:52:38.854Z,94.41
2023-05-01T02:55:59.521Z,94.63
2023-05-01T02:59:02.081Z,94.64
2023-05-01T03:02:04.354Z,94.34
2023-05-01T03:05:06.710Z,94.70
2023-05-01T03:08:08.616Z,95.10
2023-05-01T03:11:10.590Z,94.98
2023-05-01T03:14:12.648Z,95.11
2023-05-01T03:17:14.534Z,95.23
2023-05-01T03:20:16.536Z,94.66
2023-05-01T03:23:18.388Z,94.71
2023-05-01T03:26:20.302Z,94.45
2023-05-01T03:29:22.209Z,94.24
2023-05-01T03:32:24.317Z,94.00
2023-05-01T03:35:27.728Z,94.12
2023-05-01T03:38:30.897Z,94.21
2023-05-01T03:41:52.825Z,94.12
2023-05-01T03:44:59.999Z,94.25
2023-05-01T03:48:03.179Z,94.28
2023-05-01T03:51:06.087Z,94.72
2023-05-01T03:54:09.609Z,94.66
2023-05-01T03:57:27.592Z,94.78
2023-05-01T04:00:29.690Z,94.88
2023-05-01T04:03:31.698Z,94.90
2023-05-01T04:06:33.733Z,94.78
2023-05-01T04:09:35.649Z,94.86
2023-05-01T04:12:37.562Z,94.97
2023-05-01T04:15:39.518Z,94.53
2023-05-01T04:18:41.445Z,94.62
2023-05-01T04:21:43.358Z,94.68
2023-05-01T04:24:45.752Z,94.41
2023-05-01T04:27:47.927Z,94.30
2023-05-01T04:30:50.995Z,94.50
2023-05-01T04:33:53.810Z,94.36
2023-05-01T04:36:57.344Z,94.53
2023-05-01T04:39:59.429Z,94.16
2023-05-01T04:43:01.987Z,94.49
2023-05-01T04:46:05.130Z,94.55
2023-05-01T04:49:08.381Z,94.26
2023-05-01T04:52:10.822Z,94.27
2023-05-01T04:55:26.189Z,94.52
2023-05-01T04:58:37.744Z,94.26
2023-05-01T05:01:45.463Z,94.21
2023-05-01T05:04:47.581Z,94.05
2023-05-01T05:07:49.653Z,94.52
2023-05-01T05:11:07.355Z,94.64
2023-05-01T05:14:24.099Z,94.62
2023-05-01T05:17:26.931Z,94.18
2023-05-01T05:20:29.004Z,94.09
2023-05-01T05:23:31.403Z,94.16
2023-05-01T05:26:33.430Z,94.54
2023-05-01T05:29:37.855Z,94.48
2023-05-01T05:32:39.939Z,94.31
2023-05-01T05:35:42.052Z,94.23
2023-05-01T05:38:44.088Z,93.71
2023-05-01T05:41:50.178Z,94.20
2023-05-01T05:44:52.157Z,93.26
2023-05-01T05:47:54.107Z,93.10
2023-05-01T05:50:56.768Z,93.16
2023-05-01T05:53:59.524Z,92.33
2023-05-01T05:57:03.811Z,92.57
2023-05-01T06:00:09.405Z,91.74
2023-05-01T06:03:23.681Z,91.92
2023-05-01T06:06:28.386Z,92.41
2023-05-01T06:09:30.827Z,91.85
2023-05-01T06:12:34.163Z,91.67
2023-05-01T06:15:38.483Z,91.93
2023-05-01T06:18:42.405Z,92.17
2023-05-01T06:21:45.749Z,90.95
2023-05-01T06:24:47.858Z,91.07
2023-05-01T06:27:50.746Z,91.11
2023-05-01T06:30:54.696Z,90.90
2023-05-01T06:33:57.816Z,90.76
2023-05-01T06:37:18.437Z,90.17
2023-05-01T06:40:20.360Z,90.49
2023-05-01T06:43:22.523Z,90.78
2023-05-01T06:46:24.568Z,90.92
2023-05-01T06:49:26.500Z,90.03
2023-05-01T06:52:28.608Z,89.55
2023-05-01T06:55:33.284Z,89.50
2023-05-01T06:58:35.873Z,89.61
2023-05-01T07:01:37.849Z,89.99
2023-05-01T07:04:40.142Z,89.31
2023-05-01T07:07:47.369Z,88.86
2023-05-01T07:10:54.173Z,88.52
2023-05-01T07:13:56.121Z,88.22
2023-05-01T07:16:58.569Z,88.46
2023-05-01T07:20:01.717Z,88.84
2023-05-01T07:23:05.899Z,87.77
2023-05-01T07:26:09.141Z,87.79
2023-05-01T07:29:11.867Z,88.43
2023-05-01T07:32:14.513Z,88.55
2023-05-01T07:35:16.676Z,88.30
2023-05-01T07:38:18.548Z,88.93
2023-05-01T07:41:21.877Z,89.53
2023-05-01T07:44:23.994Z,88.71
2023-05-01T07:47:27.686Z,88.70
2023-05-01T07:50:29.690Z,88.60
2023-05-01T07:53:32.001Z,88.36
2023-05-01T07:56:33.944Z,88.13
2023-05-01T07:59:35.814Z,88.25
2023-05-01T08:02:37.891Z,88.54
2023-05-01T08:05:41.717Z,88.86
2023-05-01T08:08:43.636Z,88.46
2023-05-01T08:11:45.648Z,88.37
2023-05-01T08:14:47.603Z,88.23
2023-05-01T08:17:51.263Z,88.01
2023-05-01T08:20:53.264Z,88.59
2023-05-01T08:23:56.436Z,88.69
2023-05-01T08:26:58.475Z,87.82
2023-05-01T08:30:00.342Z,87.13
2023-05-01T08:33:02.311Z,87.43
2023-05-01T08:36:04.350Z,87.51
2023-05-01T08:39:06.557Z,87.69
2023-05-01T08:42:08.701Z,87.83
2023-05-01T08:45:11.756Z,88.04
2023-05-01T08:48:16.367Z,87.77
2023-05-01T08:51:21.283Z,87.55
2023-05-01T08:54:23.662Z,86.80
2023-05-01T08:57:27.433Z,87.31
2023-05-01T09:00:31.218Z,85.73
2023-05-01T09:03:33.462Z,85.31
2023-05-01T09:06:36.321Z,84.39
2023-05-01T09:09:38.144Z,84.71
2023-05-01T09:12:41.743Z,82.87
2023-05-01T09:15:44.306Z,81.90
2023-05-01T09:18:46.797Z,81.29
2023-05-01T09:21:48.950Z,81.02
2023-05-01T09:24:50.831Z,81.19
2023-05-01T09:27:52.839Z,80.98
2023-05-01T09:30:54.798Z,79.58
2023-05-01T09:33:58.326Z,80.36
2023-05-01T09:37:00.312Z,79.51
2023-05-01T09:40:09.299Z,79.29
2023-05-01T09:43:11.876Z,79.10
2023-05-01T09:46:13.945Z,79.13
2023-05-01T09:49:16.232Z,78.51
2023-05-01T09:52:18.203Z,78.64
2023-05-01T09:55:20.532Z,79.00
2023-05-01T09:58:28.809Z,76.99
2023-05-01T10:01:41.348Z,76.95
2023-05-01T10:04:43.616Z,77.64
2023-05-01T10:08:02.488Z,76.60
2023-05-01T10:11:05.379Z,75.16
2023-05-01T10:14:08.880Z,75.36
2023-05-01T10:17:20.751Z,74.12
2023-05-01T10:20:22.766Z,71.79
2023-05-01T10:23:25.550Z,73.59
2023-05-01T10:26:27.671Z,71.25
2023-05-01T10:29:31.513Z,72.80
2023-05-01T10:32:34.350Z,72.26
2023-05-01T10:35:40.639Z,71.69
2023-05-01T10:38:48.297Z,71.20
2023-05-01T10:41:59.260Z,68.99
2023-05-01T10:45:30.833Z,70.38
2023-05-01T10:48:39.035Z,70.06
2023-05-01T10:51:58.911Z,66.85
2023-05-01T10:55:32.088Z,64.38
2023-05-01T10:58:40.819Z,66.53
2023-05-01T11:01:52.174Z,65.23
2023-05-01T11:04:56.375Z,65.73
2023-05-01T11:08:30.602Z,64.63
2023-05-01T11:11:32.428Z,65.40
2023-05-01T11:14:57.549Z,66.42
2023-05-01T11:18:04.094Z,61.62
2023-05-01T11:21:06.483Z,64.63
2023-05-01T11:24:09.383Z,64.23
2023-05-01T11:27:13.827Z,63.69
2023-05-01T11:30:17.420Z,60.12
2023-05-01T11:33:25.894Z,61.61
2023-05-01T11:36:28.877Z,61.46
2023-05-01T11:39:30.766Z,58.66
2023-05-01T11:42:32.698Z,59.91
2023-05-01T11:45:38.035Z,56.91
2023-05-01T11:48:40.181Z,58.85
2023-05-01T11:51:42.106Z,58.36
2023-05-01T11:54:48.501Z,57.02
2023-05-01T11:57:52.428Z,58.05
2023-05-01T12:00:54.431Z,57.42
2023-05-01T12:03:56.451Z,56.51
2023-05-01T12:06:58.532Z,57.59
2023-05-01T12:10:00.857Z,57.27
2023-05-01T12:13:04.598Z,57.29
2023-05-01T12:16:06.880Z,57.74
2023-05-01T12:19:09.799Z,57.49
2023-05-01T12:22:11.759Z,56.76
2023-05-01T12:25:14.524Z,57.55
2023-05-01T12:28:20.494Z,56.76
2023-05-01T12:31:23.411Z,57.05
2023-05-01T12:34:32.462Z,58.04
2023-05-01T12:37:34.548Z,57.25
2023-05-01T12:40:36.426Z,56.62
2023-05-01T12:43:38.423Z,56.72
2023-05-01T12:46:40.597Z,55.91
2023-05-01T12:49:42.745Z,56.08
2023-05-01T12:52:44.674Z,56.02
2023-05-01T12:55:48.352Z,56.14
2023-05-01T12:58:52.629Z,56.28
2023-05-01T13:02:00.475Z,56.85
2023-05-01T13:05:09.757Z,57.31
2023-05-01T13:08:11.687Z,57.60
2023-05-01T13:11:16.321Z,57.79
2023-05-01T13:14:18.217Z,57.20
2023-05-01T13:17:29.058Z,57.46
2023-05-01T13:20:31.623Z,57.13
2023-05-01T13:23:33.767Z,57.37
2023-05-01T13:26:36.130Z,56.94
2023-05-01T13:29:46.395Z,55.33
2023-05-01T13:32:49.669Z,56.90
2023-05-01T13:35:51.710Z,56.89
2023-05-01T13:38:56.307Z,56.50
2023-05-01T13:41:58.712Z,54.74
2023-05-01T13:45:03.033Z,55.03
2023-05-01T13:48:05.417Z,55.05
2023-05-01T13:51:11.642Z,54.19
2023-05-01T13:54:14.146Z,52.89
2023-05-01T13:57:17.429Z,53.15
2023-05-01T14:00:20.768Z,52.50
2023-05-01T14:03:22.826Z,51.23
2023-05-01T14:06:24.824Z,51.50
2023-05-01T14:09:28.293Z,53.21
2023-05-01T14:12:31.865Z,52.72
2023-05-01T14:15:34.139Z,52.63
2023-05-01T14:18:36.688Z,52.42
2023-05-01T14:21:42.606Z,52.77
2023-05-01T14:24:44.492Z,53.52
2023-05-01T14:27:46.304Z,53.79
2023-05-01T14:30:49.622Z,54.00
2023-05-01T14:33:58.670Z,54.32
2023-05-01T14:37:00.656Z,55.05
2023-05-01T14:40:03.722Z,54.62
2023-05-01T14:43:06.134Z,55.65
2023-05-01T14:46:08.340Z,56.18
2023-05-01T14:49:11.751Z,56.67
2023-05-01T14:52:19.645Z,57.09
2023-05-01T14:55:28.070Z,57.67
2023-05-01T14:58:30.030Z,57.89
2023-05-01T15:01:32.446Z,58.20
2023-05-01T15:04:34.439Z,59.23
2023-05-01T15:07:36.397Z,59.08
2023-05-01T15:10:38.775Z,59.35
2023-05-01T15:13:42.670Z,59.57
2023-05-01T15:16:44.627Z,59.06
2023-05-01T15:19:46.671Z,58.33
2023-05-01T15:22:48.566Z,58.72
2023-05-01T15:25:50.961Z,58.34
2023-05-01T15:28:53.067Z,58.57
2023-05-01T15:32:08.160Z,58.41
2023-05-01T15:35:14.030Z,58.63
2023-05-01T15:38:18.740Z,59.24
2023-05-01T15:41:21.406Z,59.21
2023-05-01T15:44:23.322Z,59.21
2023-05-01T15:47:25.271Z,59.26
2023-05-01T15:50:27.740Z,59.77
2023-05-01T15:53:29.646Z,59.98
2023-05-01T15:56:36.761Z,60.01
2023-05-01T15:59:41.454Z,60.13
2023-05-01T16:02:44.715Z,60.39
2023-05-01T16:05:49.542Z,60.82
2023-05-01T16:08:51.907Z,61.39
2023-05-01T16:11:53.867Z,61.94
2023-05-01T16:14:56.220Z,62.34
2023-05-01T16:17:58.506Z,62.58
2023-05-01T16:21:01.064Z,62.50
2023-05-01T16:24:03.117Z,62.74
2023-05-01T16:27:05.060Z,62.77
2023-05-01T16:30:08.639Z,62.94
2023-05-01T16:33:18.804Z,62.94
2023-05-01T16:36:21.502Z,63.33
2023-05-01T16:39:23.845Z,63.94
2023-05-01T16:42:25.879Z,63.77
2023-05-01T16:45:28.119Z,64.28
2023-05-01T16:48:31.744Z,64.23
2023-05-01T16:51:33.661Z,64.65
2023-05-01T16:54:36.296Z,64.73
2023-05-01T16:57:38.169Z,65.65
2023-05-01T17:00:41.336Z,65.74
2023-05-01T17:03:43.277Z,66.01
2023-05-01T17:06:45.263Z,66.21
2023-05-01T17:09:47.174Z,66.43
2023-05-01T17:12:49.179Z,66.55
2023-05-01T17:15:52.669Z,66.67
2023-05-01T17:18:54.735Z,66.80
2023-05-01T17:21:58.202Z,67.00
2023-05-01T17:25:02.487Z,67.66
2023-05-01T17:28:04.420Z,68.07
2023-05-01T17:31:06.389Z,68.56
2023-05-01T17:34:08.253Z,68.65
2023-05-01T17:37:10.220Z,69.19
2023-05-01T17:40:12.420Z,69.60
2023-05-01T17:43:14.283Z,70.33
2023-05-01T17:46:17.117Z,70.59
2023-05-01T17:49:19.053Z,71.19
2023-05-01T17:52:21.239Z,72.04
2023-05-01T17:55:23.192Z,72.20
2023-05-01T17:58:25.001Z,72.41
2023-05-01T18:01:27.034Z,72.56
2023-05-01T18:04:29.626Z,72.92
2023-05-01T18:07:31.613Z,73.24
2023-05-01T18:10:34.040Z,73.62
2023-05-01T18:13:40.011Z,73.67
2023-05-01T18:16:42.195Z,74.38
2023-05-01T18:19:44.114Z,74.98
2023-05-01T18:22:46.045Z,76.06
2023-05-01T18:25:48.278Z,75.63
2023-05-01T18:28:50.632Z,75.67
2023-05-01T18:31:54.715Z,75.06
2023-05-01T18:34:56.834Z,75.66
2023-05-01T18:37:58.652Z,76.53
2023-05-01T18:41:00.578Z,76.44
2023-05-01T18:44:04.154Z,76.12
2023-05-01T18:47:06.098Z,76.36
2023-05-01T18:50:10.114Z,76.43
2023-05-01T18:53:12.026Z,77.06
2023-05-01T18:56:13.883Z,77.00
2023-05-01T18:59:17.212Z,78.09
2023-05-01T19:02:19.182Z,79.26
2023-05-01T19:05:22.723Z,79.69
2023-05-01T19:08:24.719Z,80.06
2023-05-01T19:11:30.420Z,80.37
2023-05-01T19:14:32.352Z,80.41
2023-05-01T19:17:34.273Z,80.53
2023-05-01T19:20:36.135Z,80.55
2023-05-01T19:23:39.956Z,80.12
2023-05-01T19:26:41.835Z,79.59
2023-05-01T19:29:44.657Z,79.12
2023-05-01T19:32:46.768Z,80.17
2023-05-01T19:35:48.673Z,81.23
2023-05-01T19:38:50.606Z,80.74
2023-05-01T19:41:53.075Z,81.37
2023-05-01T19:44:55.010Z,80.80
2023-05-01T19:47:56.994Z,81.77
2023-05-01T19:50:58.994Z,81.95
2023-05-01T19:54:01.533Z,81.82
2023-05-01T19:57:03.616Z,81.65
2023-05-01T20:00:07.156Z,82.18
